Time;durP1;ratioP1;P1;durP2;ratioP2;P2;SDS_P1;SDS_P2;PMS_P1;PMS_P2;Temp;Humidity;BMP_temperature;BMP_pressure;BME280_temperature;BME280_humidity;BME280_pressure;Samples;Min_cycle;Max_cycle;Signal;HPM_P1;HPM_P2
2021/07/09 00:02:00;;;;;;;1999.90;999.90;;;8.50;99.90;;;;;;5051699;28;20170;-41
2021/07/09 00:04:27;;;;;;;1999.90;999.90;;;8.40;99.90;;;;;;5051132;28;20201;-41
2021/07/09 00:06:57;;;;;;;1999.90;999.90;;;8.50;99.90;;;;;;5051608;28;20248;-44
2021/07/09 00:09:25;;;;;;;1999.90;999.90;;;8.50;99.90;;;;;;5051243;28;20161;-41
2021/07/09 00:11:54;;;;;;;1999.90;999.90;;;8.60;99.90;;;;;;5050937;28;20256;-41
2021/07/09 00:14:41;;;;;;;1999.90;999.90;;;8.60;99.90;;;;;;5051517;28;20169;-41
2021/07/09 00:17:07;;;;;;;1999.90;999.90;;;8.60;99.90;;;;;;5051014;28;20160;-41
2021/07/09 00:19:34;;;;;;;1999.90;999.90;;;8.70;99.90;;;;;;5051282;28;20192;-41
2021/07/09 00:22:01;;;;;;;1999.90;999.90;;;8.70;99.90;;;;;;5051436;28;20172;-40
2021/07/09 00:24:28;;;;;;;1999.90;999.90;;;8.70;99.90;;;;;;5051148;28;20196;-42
2021/07/09 00:26:55;;;;;;;1999.90;999.90;;;8.60;99.90;;;;;;5054115;28;20172;-42
2021/07/09 00:29:22;;;;;;;1999.90;999.90;;;8.70;99.90;;;;;;5055471;28;20172;-44
2021/07/09 00:31:49;;;;;;;1999.90;999.90;;;8.70;99.90;;;;;;5055065;28;20181;-41
2021/07/09 00:34:17;;;;;;;1999.90;999.90;;;8.70;99.90;;;;;;5055322;28;20191;-40
2021/07/09 00:36:44;;;;;;;1999.90;999.90;;;8.80;99.90;;;;;;5054999;28;20181;-44
2021/07/09 00:39:11;;;;;;;1999.90;999.90;;;8.90;99.90;;;;;;5055050;28;20172;-43
2021/07/09 00:41:37;;;;;;;1999.90;999.90;;;8.90;99.90;;;;;;5055523;28;20670;-41
2021/07/09 00:44:06;;;;;;;1999.90;999.90;;;8.90;99.90;;;;;;5054758;28;20215;-41
2021/07/09 00:46:35;;;;;;;1999.90;999.90;;;8.90;99.90;;;;;;5055226;28;20172;-41
2021/07/09 00:49:03;;;;;;;1999.90;999.90;;;8.90;99.90;;;;;;5055419;28;20193;-43
2021/07/09 00:51:30;;;;;;;1999.90;999.90;;;8.80;99.90;;;;;;5055178;28;20628;-41
2021/07/09 00:53:57;;;;;;;1999.90;999.90;;;8.80;99.90;;;;;;5054927;28;20179;-40
2021/07/09 00:56:25;;;;;;;1999.90;999.90;;;8.80;99.90;;;;;;5054771;28;20242;-41
2021/07/09 00:58:53;;;;;;;1999.90;999.90;;;8.70;99.90;;;;;;5054817;28;20165;-44
2021/07/09 01:01:20;;;;;;;1999.90;999.90;;;8.70;99.90;;;;;;5054774;28;20244;-41
2021/07/09 01:03:47;;;;;;;1999.90;999.90;;;8.60;99.90;;;;;;5054785;28;20204;-42
2021/07/09 01:06:14;;;;;;;1999.90;999.90;;;8.50;99.90;;;;;;5054465;28;20225;-41
2021/07/09 01:08:41;;;;;;;1999.90;999.90;;;8.50;99.90;;;;;;5054859;28;20167;-41
2021/07/09 01:11:10;;;;;;;1999.90;999.90;;;8.40;99.90;;;;;;5054380;28;20168;-44
2021/07/09 01:13:37;;;;;;;1999.90;999.90;;;8.40;99.90;;;;;;5054388;28;20161;-41
2021/07/09 01:16:04;;;;;;;1999.90;999.90;;;8.40;99.90;;;;;;5053548;28;20580;-41
2021/07/09 01:18:31;;;;;;;1999.90;999.90;;;8.40;99.90;;;;;;5054190;28;20188;-42
2021/07/09 01:20:58;;;;;;;1999.90;999.90;;;8.50;99.90;;;;;;5054337;28;20264;-42
2021/07/09 01:23:28;;;;;;;1999.90;999.90;;;8.40;99.90;;;;;;5054458;28;20197;-41
2021/07/09 01:25:56;;;;;;;1999.90;999.90;;;8.40;99.90;;;;;;5054020;28;20239;-42
2021/07/09 01:28:23;;;;;;;1999.90;999.90;;;8.40;99.90;;;;;;5054287;28;20169;-41
2021/07/09 01:30:49;;;;;;;1999.90;999.90;;;8.50;99.90;;;;;;5054358;28;20169;-42
2021/07/09 01:33:16;;;;;;;1999.90;999.90;;;8.50;99.90;;;;;;5054248;28;20648;-41
2021/07/09 01:35:43;;;;;;;1999.90;999.90;;;8.50;99.90;;;;;;5054175;28;20172;-41
2021/07/09 01:38:10;;;;;;;1999.90;999.90;;;8.60;99.90;;;;;;5053829;28;20534;-42
2021/07/09 01:40:39;;;;;;;1999.90;999.90;;;8.60;99.90;;;;;;5054195;28;20555;-41
2021/07/09 01:43:07;;;;;;;1999.90;999.90;;;8.50;99.90;;;;;;5054305;28;20255;-41
2021/07/09 01:45:34;;;;;;;1999.90;999.90;;;8.40;99.90;;;;;;5053913;28;20203;-41
2021/07/09 01:48:01;;;;;;;1999.90;999.90;;;8.40;99.90;;;;;;5053793;28;20174;-44
2021/07/09 01:50:28;;;;;;;1999.90;999.90;;;8.30;99.90;;;;;;5054188;28;20169;-41
2021/07/09 01:52:55;;;;;;;1999.90;999.90;;;8.30;99.90;;;;;;5053526;28;20646;-43
2021/07/09 01:55:22;;;;;;;1999.90;999.90;;;8.30;99.90;;;;;;5053736;28;20167;-41
2021/07/09 01:57:48;;;;;;;1999.90;999.90;;;8.30;99.90;;;;;;5053871;28;20173;-45
2021/07/09 02:00:21;;;;;;;1999.90;999.90;;;8.30;99.90;;;;;;5053490;28;20162;-42
2021/07/09 02:02:48;;;;;;;1999.90;999.90;;;8.30;99.90;;;;;;5053750;28;20160;-42
2021/07/09 02:05:18;;;;;;;1999.90;999.90;;;8.40;99.90;;;;;;5053593;28;20376;-45
2021/07/09 02:07:55;;;;;;;1999.90;999.90;;;8.40;99.90;;;;;;5053397;28;20192;-41
2021/07/09 02:10:25;;;;;;;1999.90;999.90;;;8.50;99.90;;;;;;5053326;28;20161;-41
2021/07/09 02:12:54;;;;;;;1999.90;999.90;;;8.60;99.90;;;;;;5053350;28;20248;-40
2021/07/09 02:15:26;;;;;;;1999.90;999.90;;;8.60;99.90;;;;;;5053100;28;20183;-42
2021/07/09 02:17:54;;;;;;;1999.90;999.90;;;8.60;99.90;;;;;;5053767;28;20163;-43
2021/07/09 02:20:23;;;;;;;1999.90;999.90;;;8.60;99.90;;;;;;5053052;28;20235;-40
2021/07/09 02:22:50;;;;;;;1999.90;999.90;;;8.70;99.90;;;;;;5053370;28;20169;-39
2021/07/09 02:25:17;;;;;;;1999.90;999.90;;;8.80;99.90;;;;;;5053611;28;20204;-43
2021/07/09 02:27:47;;;;;;;1999.90;999.90;;;8.80;99.90;;;;;;5052839;28;20200;-45
2021/07/09 02:30:18;;;;;;;1999.90;999.90;;;8.90;99.90;;;;;;5053085;28;20223;-44
2021/07/09 02:32:47;;;;;;;1999.90;999.90;;;8.90;99.90;;;;;;5053232;28;20604;-41
2021/07/09 02:35:19;;;;;;;1999.90;999.90;;;8.90;99.90;;;;;;5052871;28;20177;-44
2021/07/09 02:37:47;;;;;;;1999.90;999.90;;;8.90;99.90;;;;;;5053053;28;20211;-40
2021/07/09 02:40:17;;;;;;;1999.90;999.90;;;8.90;99.90;;;;;;5052954;28;20165;-41
2021/07/09 02:42:46;;;;;;;1999.90;999.90;;;8.90;99.90;;;;;;5052943;28;20196;-40
2021/07/09 02:45:13;;;;;;;1999.90;999.90;;;8.90;99.90;;;;;;5052917;28;20197;-43
2021/07/09 02:47:41;;;;;;;1999.90;999.90;;;8.90;99.90;;;;;;5052847;28;20184;-40
2021/07/09 02:50:13;;;;;;;1999.90;999.90;;;9.00;99.90;;;;;;5051835;28;20171;-40
2021/07/09 02:52:40;;;;;;;1999.90;999.90;;;9.00;99.90;;;;;;5053108;28;20168;-40
2021/07/09 02:55:09;;;;;;;1999.90;999.90;;;9.00;99.90;;;;;;5052552;28;20173;-43
2021/07/09 02:57:36;;;;;;;1999.90;999.90;;;8.90;99.90;;;;;;5052489;28;20212;-40
2021/07/09 03:00:09;;;;;;;1999.90;999.90;;;8.90;99.90;;;;;;5053062;28;20319;-40
2021/07/09 03:02:36;;;;;;;1999.90;999.90;;;8.90;99.90;;;;;;5052282;28;20222;-40
2021/07/09 03:05:04;;;;;;;1999.90;999.90;;;8.90;99.90;;;;;;5052506;28;20219;-40
2021/07/09 03:07:31;;;;;;;1999.90;999.90;;;9.00;99.90;;;;;;5052553;28;20172;-39
2021/07/09 03:09:57;;;;;;;1999.90;999.90;;;8.90;99.90;;;;;;5052343;28;20173;-40
2021/07/09 03:12:24;;;;;;;1999.90;999.90;;;8.90;99.90;;;;;;5052101;28;20221;-40
2021/07/09 03:14:51;;;;;;;1999.90;999.90;;;8.90;99.90;;;;;;5052267;28;20541;-41
2021/07/09 03:17:18;;;;;;;1999.90;999.90;;;8.90;99.90;;;;;;5052169;28;20529;-44
2021/07/09 03:19:45;;;;;;;1999.90;999.90;;;8.90;99.90;;;;;;5052583;28;20681;-40
2021/07/09 03:22:11;;;;;;;1999.90;999.90;;;8.80;99.90;;;;;;5052138;28;20224;-40
2021/07/09 03:24:38;;;;;;;1999.90;999.90;;;8.80;99.90;;;;;;5051873;28;20251;-41
2021/07/09 03:27:06;;;;;;;1999.90;999.90;;;8.70;99.90;;;;;;5052386;28;20182;-40
2021/07/09 03:29:33;;;;;;;1999.90;999.90;;;8.80;99.90;;;;;;5052058;28;20177;-41
2021/07/09 03:32:00;;;;;;;1999.90;999.90;;;8.80;99.90;;;;;;5051818;28;20164;-46
2021/07/09 03:34:26;;;;;;;1999.90;999.90;;;8.70;99.90;;;;;;5052194;28;20177;-40
2021/07/09 03:36:53;;;;;;;1999.90;999.90;;;8.60;99.90;;;;;;5051647;28;20257;-40
2021/07/09 03:39:20;;;;;;;1999.90;999.90;;;8.60;99.90;;;;;;5051886;28;20176;-40
2021/07/09 03:41:47;;;;;;;1999.90;999.90;;;8.60;99.90;;;;;;5052014;28;20188;-42
2021/07/09 03:44:13;;;;;;;1999.90;999.90;;;8.60;99.90;;;;;;5051468;28;20192;-41
2021/07/09 03:46:41;;;;;;;1999.90;999.90;;;8.60;99.90;;;;;;5051712;28;20184;-40
2021/07/09 03:49:08;;;;;;;1999.90;999.90;;;8.70;99.90;;;;;;5051787;28;20704;-40
2021/07/09 03:51:37;;;;;;;1999.90;999.90;;;8.80;99.90;;;;;;5051617;28;20534;-40
2021/07/09 03:54:05;;;;;;;1999.90;999.90;;;8.70;99.90;;;;;;5051931;28;20200;-42
2021/07/09 03:56:32;;;;;;;1999.90;999.90;;;8.80;99.90;;;;;;5052092;28;20169;-41
2021/07/09 03:59:01;;;;;;;1999.90;999.90;;;8.90;99.90;;;;;;5051491;28;20225;-40
2021/07/09 04:01:28;;;;;;;1999.90;999.90;;;8.80;99.90;;;;;;5051485;28;20541;-41
2021/07/09 04:03:54;;;;;;;1999.90;999.90;;;8.80;99.90;;;;;;5051427;28;20185;-40
2021/07/09 04:06:21;;;;;;;1999.90;999.90;;;8.80;99.90;;;;;;5051230;28;20168;-40
2021/07/09 04:08:48;;;;;;;1999.90;999.90;;;8.70;99.90;;;;;;5051708;28;20173;-40
2021/07/09 04:11:15;;;;;;;1999.90;999.90;;;8.80;99.90;;;;;;5050973;28;20173;-42
2021/07/09 04:13:41;;;;;;;1999.90;999.90;;;8.70;99.90;;;;;;5051152;28;20533;-40
2021/07/09 04:16:08;;;;;;;1999.90;999.90;;;8.60;99.90;;;;;;5051660;28;20218;-40
2021/07/09 04:18:35;;;;;;;1999.90;999.90;;;8.50;99.90;;;;;;5051117;28;20635;-40
2021/07/09 04:21:02;;;;;;;1999.90;999.90;;;8.40;99.90;;;;;;5051365;28;20197;-40
2021/07/09 04:23:29;;;;;;;1999.90;999.90;;;8.40;99.90;;;;;;5051443;28;20628;-41
2021/07/09 04:25:56;;;;;;;1999.90;999.90;;;8.20;99.90;;;;;;5051058;28;20236;-40
2021/07/09 04:28:22;;;;;;;1999.90;999.90;;;8.10;99.90;;;;;;5051169;28;20195;-40
2021/07/09 04:30:49;;;;;;;1999.90;999.90;;;8.10;99.90;;;;;;5051272;28;20173;-40
2021/07/09 04:33:17;;;;;;;1999.90;999.90;;;8.10;99.90;;;;;;5051101;28;20638;-42
2021/07/09 04:35:43;;;;;;;1999.90;999.90;;;8.00;99.90;;;;;;5051197;28;20169;-40
2021/07/09 04:38:10;;;;;;;1999.90;999.90;;;8.00;99.90;;;;;;5051104;28;20627;-41
2021/07/09 04:40:37;;;;;;;1999.90;999.90;;;8.00;99.90;;;;;;5050803;28;20173;-40
2021/07/09 04:43:04;;;;;;;1999.90;999.90;;;8.00;99.90;;;;;;5051198;28;20681;-40
2021/07/09 04:45:31;;;;;;;1999.90;999.90;;;8.10;99.90;;;;;;5050970;28;20196;-41
2021/07/09 04:47:57;;;;;;;1999.90;999.90;;;8.10;99.90;;;;;;5050493;28;20647;-40
2021/07/09 04:50:24;;;;;;;1999.90;999.90;;;8.20;99.90;;;;;;5051193;28;20172;-40
2021/07/09 04:52:51;;;;;;;1999.90;999.90;;;8.20;99.90;;;;;;5050974;28;20170;-40
2021/07/09 04:55:18;;;;;;;1999.90;999.90;;;8.20;99.90;;;;;;5050934;28;20685;-40
2021/07/09 04:57:45;;;;;;;1999.90;999.90;;;8.20;99.90;;;;;;5051276;28;20173;-43
2021/07/09 05:00:12;;;;;;;1999.90;999.90;;;8.30;99.90;;;;;;5050480;28;20313;-40
2021/07/09 05:02:40;;;;;;;1999.90;999.90;;;8.30;99.90;;;;;;5050828;28;20533;-40
2021/07/09 05:05:15;;;;;;;1999.90;999.90;;;8.30;99.90;;;;;;5051217;28;20308;-39
2021/07/09 05:07:43;;;;;;;1999.90;999.90;;;8.40;99.90;;;;;;5049624;28;20169;-42
2021/07/09 05:10:10;;;;;;;1999.90;999.90;;;8.40;99.90;;;;;;5050781;28;20260;-45
2021/07/09 05:12:37;;;;;;;1999.90;999.90;;;8.40;99.90;;;;;;5052850;28;20212;-41
2021/07/09 05:15:05;;;;;;;1999.90;999.90;;;8.50;99.90;;;;;;5053660;28;20727;-40
2021/07/09 05:17:32;;;;;;;1999.90;999.90;;;8.50;99.90;;;;;;5054646;28;20184;-39
2021/07/09 05:19:58;;;;;;;1999.90;999.90;;;8.60;99.90;;;;;;5054674;28;20219;-39
2021/07/09 05:22:25;;;;;;;1999.90;999.90;;;8.70;99.90;;;;;;5054346;28;20169;-40
2021/07/09 05:24:56;;;;;;;1999.90;999.90;;;8.60;99.90;;;;;;5054547;28;20258;-40
2021/07/09 05:27:29;;;;;;;1999.90;999.90;;;8.60;99.90;;;;;;5054200;28;20156;-44
2021/07/09 05:29:56;;;;;;;1999.90;999.90;;;8.60;99.90;;;;;;5053972;28;20181;-42
2021/07/09 05:32:26;;;;;;;1999.90;999.90;;;8.60;99.90;;;;;;5054430;28;20168;-40
2021/07/09 05:34:54;;;;;;;1999.90;999.90;;;8.60;99.90;;;;;;5054090;28;20173;-41
2021/07/09 05:37:22;;;;;;;1999.90;999.90;;;8.60;99.90;;;;;;5054291;28;20170;-40
2021/07/09 05:39:50;;;;;;;1999.90;999.90;;;8.60;99.90;;;;;;5054244;28;20173;-40
2021/07/09 05:42:17;;;;;;;1999.90;999.90;;;8.60;99.90;;;;;;5053883;28;20169;-40
2021/07/09 05:44:44;;;;;;;1999.90;999.90;;;8.60;99.90;;;;;;5053957;28;20207;-40
2021/07/09 05:47:12;;;;;;;1999.90;999.90;;;8.50;99.90;;;;;;5053852;28;20175;-40
2021/07/09 05:49:39;;;;;;;1999.90;999.90;;;8.50;99.90;;;;;;5053765;28;20560;-40
2021/07/09 05:52:06;;;;;;;1999.90;999.90;;;8.40;99.90;;;;;;5053598;28;20173;-40
2021/07/09 05:54:33;;;;;;;1999.90;999.90;;;8.50;99.90;;;;;;5054069;28;20176;-43
2021/07/09 05:57:00;;;;;;;1999.90;999.90;;;8.50;99.90;;;;;;5053293;28;20272;-40
2021/07/09 05:59:27;;;;;;;1999.90;999.90;;;8.50;99.90;;;;;;5053907;28;20173;-41
2021/07/09 06:01:54;;;;;;;1999.90;999.90;;;8.60;99.90;;;;;;5053374;28;20173;-39
2021/07/09 06:04:21;;;;;;;1999.90;999.90;;;8.70;99.90;;;;;;5052811;28;20193;-42
2021/07/09 06:06:48;;;;;;;1999.90;999.90;;;8.70;99.90;;;;;;5053813;28;20235;-46
2021/07/09 06:09:14;;;;;;;1999.90;999.90;;;8.90;99.90;;;;;;5053023;28;20176;-51
2021/07/09 06:11:42;;;;;;;1999.90;999.90;;;9.00;99.90;;;;;;5052846;28;20279;-42
2021/07/09 06:14:08;;;;;;;1999.90;999.90;;;8.90;99.90;;;;;;5052989;28;20209;-47
2021/07/09 06:16:35;;;;;;;1999.90;999.90;;;9.00;99.90;;;;;;5052813;28;20254;-49
2021/07/09 06:19:02;;;;;;;1999.90;999.90;;;9.00;99.90;;;;;;5052961;28;20161;-54
2021/07/09 06:21:29;;;;;;;1999.90;999.90;;;9.00;99.90;;;;;;5051153;28;20226;-48
2021/07/09 06:23:56;;;;;;;1999.90;999.90;;;9.00;99.90;;;;;;5051348;28;20180;-51
2021/07/09 06:26:23;;;;;;;1999.90;999.90;;;9.10;99.90;;;;;;5052381;28;20177;-51
2021/07/09 06:28:50;;;;;;;1999.90;999.90;;;9.10;99.90;;;;;;5052693;28;20190;-52
2021/07/09 06:31:17;;;;;;;1999.90;999.90;;;9.10;99.90;;;;;;5053008;28;20176;-62
2021/07/09 06:33:45;;;;;;;1999.90;999.90;;;9.10;99.90;;;;;;5052792;28;20638;-63
2021/07/09 06:36:12;;;;;;;1999.90;999.90;;;9.10;99.90;;;;;;5053104;28;20279;-57
2021/07/09 06:38:38;;;;;;;1999.90;999.90;;;9.00;99.90;;;;;;5052704;28;20211;-48
2021/07/09 06:41:05;;;;;;;1999.90;999.90;;;9.10;99.90;;;;;;5052621;28;20185;-43
2021/07/09 06:43:32;;;;;;;1999.90;999.90;;;9.20;99.90;;;;;;5052941;28;20162;-53
2021/07/09 06:45:59;;;;;;;1999.90;999.90;;;9.30;99.90;;;;;;5052290;28;20239;-59
2021/07/09 06:48:26;;;;;;;1999.90;999.90;;;9.40;99.90;;;;;;5052924;28;20260;-60
2021/07/09 06:50:52;;;;;;;1999.90;999.90;;;9.70;99.90;;;;;;5052601;28;20670;-48
2021/07/09 06:53:19;;;;;;;1999.90;999.90;;;9.90;99.90;;;;;;5052218;28;20172;-49
2021/07/09 06:55:46;;;;;;;1999.90;999.90;;;10.00;99.90;;;;;;5052797;28;20188;-56
2021/07/09 06:58:12;;;;;;;1999.90;999.90;;;10.00;99.90;;;;;;5051996;28;20620;-56
2021/07/09 07:00:39;;;;;;;1999.90;999.90;;;10.10;99.90;;;;;;5050905;28;20576;-50
2021/07/09 07:03:09;;;;;;;1999.90;999.90;;;10.10;99.90;;;;;;5052104;28;20169;-47
2021/07/09 07:05:36;;;;;;;1999.90;999.90;;;10.20;99.90;;;;;;5049553;28;20686;-60
2021/07/09 07:08:16;;;;;;;1999.90;999.90;;;10.30;99.90;;;;;;5050614;28;20177;-48
2021/07/09 07:10:44;;;;;;;1999.90;999.90;;;10.30;99.90;;;;;;5052029;28;20169;-61
2021/07/09 07:13:11;;;;;;;1999.90;999.90;;;11.00;99.90;;;;;;5050564;28;20255;-58
2021/07/09 07:15:39;;;;;;;1999.90;999.90;;;10.90;99.90;;;;;;5051731;28;20198;-59
2021/07/09 07:18:10;;;;;;;1999.90;999.90;;;10.80;99.90;;;;;;5051720;28;20192;-60
2021/07/09 07:20:42;;;;;;;1999.90;999.90;;;10.70;99.90;;;;;;5051761;28;20161;-46
2021/07/09 07:23:17;;;;;;;1999.90;999.90;;;10.60;99.90;;;;;;5052054;28;20149;-49
2021/07/09 07:25:49;;;;;;;1999.90;999.90;;;10.50;99.90;;;;;;5051167;28;20247;-46
2021/07/09 07:28:16;;;;;;;1999.90;999.90;;;10.40;99.90;;;;;;5051355;28;20624;-53
2021/07/09 07:30:43;;;;;;;1999.90;999.90;;;10.40;99.90;;;;;;5051822;28;20165;-52
2021/07/09 07:33:10;;;;;;;1999.90;999.90;;;10.40;99.90;;;;;;5033608;28;20701;-49
2021/07/09 07:35:40;;;;;;;1999.90;999.90;;;10.30;99.90;;;;;;5051027;28;20539;-60
2021/07/09 07:38:08;;;;;;;1999.90;999.90;;;10.30;99.90;;;;;;5051686;28;20207;-46
2021/07/09 07:40:36;;;;;;;1999.90;999.90;;;10.30;99.90;;;;;;5051644;28;20640;-53
2021/07/09 07:43:04;;;;;;;1999.90;999.90;;;10.90;99.90;;;;;;5051686;28;20173;-48
2021/07/09 07:45:31;;;;;;;1999.90;999.90;;;10.90;99.90;;;;;;5051615;28;20211;-54
2021/07/09 07:47:57;;;;;;;1999.90;999.90;;;11.00;99.90;;;;;;5050957;28;20248;-48
2021/07/09 07:50:26;;;;;;;1999.90;999.90;;;11.10;99.90;;;;;;5051333;28;20627;-52
2021/07/09 07:52:52;;;;;;;1999.90;999.90;;;11.10;99.90;;;;;;5051168;28;20169;-48
2021/07/09 07:55:19;;;;;;;1999.90;999.90;;;11.00;99.90;;;;;;5050901;28;20231;-52
2021/07/09 07:57:46;;;;;;;1999.90;999.90;;;11.00;99.90;;;;;;5051369;28;20582;-51
2021/07/09 08:00:13;;;;;;;1999.90;999.90;;;11.10;99.90;;;;;;5050539;28;20165;-49
2021/07/09 08:02:40;;;;;;;1999.90;999.90;;;11.10;99.90;;;;;;5050860;28;20628;-45
2021/07/09 08:05:10;;;;;;;1999.90;999.90;;;11.20;99.90;;;;;;5051215;28;20211;-45
2021/07/09 08:07:37;;;;;;;1999.90;999.90;;;11.20;99.90;;;;;;5051138;28;20181;-45
2021/07/09 08:10:05;;;;;;;1999.90;999.90;;;11.20;99.90;;;;;;5051184;28;20170;-46
2021/07/09 08:12:34;;;;;;;1999.90;999.90;;;11.30;99.90;;;;;;5051097;28;20248;-45
2021/07/09 08:15:03;;;;;;;1999.90;999.90;;;11.50;99.90;;;;;;5052246;28;20180;-48
2021/07/09 08:17:29;;;;;;;1999.90;999.90;;;11.80;99.90;;;;;;5051806;28;20161;-49
2021/07/09 08:19:56;;;;;;;1999.90;999.90;;;11.80;99.90;;;;;;5051114;28;20184;-48
2021/07/09 08:22:23;;;;;;;1999.90;999.90;;;11.90;99.90;;;;;;5052395;28;20501;-55
2021/07/09 08:24:50;;;;;;;1999.90;999.90;;;12.00;99.90;;;;;;5052321;28;20212;-56
2021/07/09 08:27:16;;;;;;;1999.90;999.90;;;12.00;99.90;;;;;;5052312;28;20209;-42
2021/07/09 08:29:43;;;;;;;1999.90;999.90;;;12.00;99.90;;;;;;5052380;28;20161;-45
2021/07/09 08:32:10;;;;;;;1999.90;999.90;;;12.30;99.90;;;;;;5051084;28;20517;-44
2021/07/09 08:34:37;;;;;;;1999.90;999.90;;;12.30;99.90;;;;;;5052511;28;20168;-43
2021/07/09 08:37:04;;;;;;;1999.90;999.90;;;12.50;99.90;;;;;;5052374;28;20172;-49
2021/07/09 08:39:31;;;;;;;1999.90;999.90;;;12.50;99.90;;;;;;5052358;28;20211;-53
2021/07/09 08:41:58;;;;;;;1999.90;999.90;;;12.60;99.90;;;;;;5052280;28;20166;-53
2021/07/09 08:44:25;;;;;;;1999.90;999.90;;;12.90;99.90;;;;;;5052357;28;20559;-46
2021/07/09 08:46:56;;;;;;;1999.90;999.90;;;13.00;99.90;;;;;;5053167;28;20169;-48
2021/07/09 08:49:24;;;;;;;1999.90;999.90;;;13.70;99.90;;;;;;5056101;28;20579;-49
2021/07/09 08:51:51;;;;;;;1999.90;999.90;;;13.50;99.90;;;;;;5056021;28;20174;-51
2021/07/09 08:54:19;;;;;;;1999.90;999.90;;;14.70;99.90;;;;;;5055818;28;20166;-59
2021/07/09 08:56:48;;;;;;;1999.90;999.90;;;15.50;99.90;;;;;;5055659;28;20188;-59
2021/07/09 08:59:15;;;;;;;1999.90;999.90;;;15.10;99.90;;;;;;5056089;28;20165;-60
2021/07/09 09:01:52;;;;;;;1999.90;999.90;;;14.90;99.90;;;;;;5055859;28;20169;-60
2021/07/09 09:04:29;;;;;;;1999.90;999.90;;;14.50;99.90;;;;;;5055792;28;20192;-47
2021/07/09 09:07:05;;;;;;;1999.90;999.90;;;14.40;99.90;;;;;;5055707;28;20571;-58
2021/07/09 09:09:35;;;;;;;1999.90;999.90;;;15.10;99.90;;;;;;5055848;28;20252;-58
2021/07/09 09:12:03;;;;;;;1999.90;999.90;;;15.80;99.90;;;;;;5055567;28;20201;-44
2021/07/09 09:14:31;;;;;;;1999.90;999.90;;;15.80;99.90;;;;;;5055822;28;20188;-47
2021/07/09 09:16:58;;;;;;;1999.90;999.90;;;15.70;99.90;;;;;;5055458;28;20169;-45
2021/07/09 09:19:25;;;;;;;1999.90;999.90;;;15.80;99.90;;;;;;5055709;28;20165;-48
2021/07/09 09:22:12;;;;;;;1999.90;999.90;;;15.00;99.90;;;;;;5055597;28;20299;-46
2021/07/09 09:24:39;;;;;;;1999.90;999.90;;;14.20;99.90;;;;;;5037738;28;20597;-45
2021/07/09 09:27:24;;;;;;;1999.90;999.90;;;13.70;99.90;;;;;;5055756;28;20204;-43
2021/07/09 09:29:51;;;;;;;1999.90;999.90;;;13.50;99.90;;;;;;5055620;28;20678;-50
2021/07/09 09:32:18;;;;;;;1999.90;999.90;;;13.50;99.90;;;;;;5055348;28;20214;-43
2021/07/09 09:34:49;;;;;;;1999.90;999.90;;;13.40;99.90;;;;;;5055299;28;20169;-45
2021/07/09 09:37:28;;;;;;;1999.90;999.90;;;13.40;99.90;;;;;;5055392;28;20161;-45
2021/07/09 09:39:55;;;;;;;1999.90;999.90;;;13.50;99.90;;;;;;5055504;28;20177;-45
2021/07/09 09:42:24;;;;;;;1999.90;999.90;;;13.50;99.90;;;;;;5055468;28;20165;-47
2021/07/09 09:45:04;;;;;;;1999.90;999.90;;;13.40;99.90;;;;;;5055298;28;20209;-45
2021/07/09 09:47:34;;;;;;;1999.90;999.90;;;13.40;99.90;;;;;;5055043;28;20173;-43
2021/07/09 09:50:04;;;;;;;1999.90;999.90;;;13.40;99.90;;;;;;5053885;28;20222;-44
2021/07/09 09:52:38;;;;;;;1999.90;999.90;;;13.40;99.90;;;;;;5053996;28;20256;-49
2021/07/09 09:55:12;;;;;;;1999.90;999.90;;;13.50;99.90;;;;;;5054015;28;20252;-42
2021/07/09 09:57:40;;;;;;;1999.90;999.90;;;13.60;99.90;;;;;;5054233;28;20169;-43
2021/07/09 10:00:21;;;;;;;1999.90;999.90;;;13.80;99.90;;;;;;5053711;28;20533;-46
2021/07/09 10:02:48;;;;;;;1999.90;999.90;;;13.90;99.90;;;;;;5053822;28;20210;-42
2021/07/09 10:05:16;;;;;;;1999.90;999.90;;;14.00;99.90;;;;;;5053903;28;20215;-49
2021/07/09 10:07:45;;;;;;;1999.90;999.90;;;14.20;99.90;;;;;;5052405;28;20169;-51
2021/07/09 10:10:15;;;;;;;1999.90;999.90;;;14.40;99.90;;;;;;5053555;28;20173;-56
2021/07/09 10:12:44;;;;;;;1999.90;999.90;;;14.50;99.90;;;;;;5053613;28;20224;-52
2021/07/09 10:15:11;;;;;;;1999.90;999.90;;;14.50;99.90;;;;;;5053606;28;20260;-57
2021/07/09 10:17:38;;;;;;;1999.90;999.90;;;14.50;99.90;;;;;;5053450;28;20165;-53
2021/07/09 10:20:06;;;;;;;1999.90;999.90;;;14.60;99.90;;;;;;5053362;28;20210;-53
2021/07/09 10:22:32;;;;;;;1999.90;999.90;;;14.50;99.90;;;;;;5053301;28;20199;-43
2021/07/09 10:25:00;;;;;;;1999.90;999.90;;;14.60;99.90;;;;;;5053398;28;20262;-42
2021/07/09 10:27:28;;;;;;;1999.90;999.90;;;14.70;99.90;;;;;;5053163;28;20181;-40
2021/07/09 10:30:00;;;;;;;1999.90;999.90;;;14.50;99.90;;;;;;5052955;28;20307;-40
2021/07/09 10:32:46;;;;;;;1999.90;999.90;;;14.40;99.90;;;;;;5053328;28;20162;-47
2021/07/09 10:35:33;;;;;;;1999.90;999.90;;;14.30;99.90;;;;;;5052775;28;20153;-42
2021/07/09 10:38:18;;;;;;;1999.90;999.90;;;14.30;99.90;;;;;;5039419;28;20597;-40
2021/07/09 10:40:46;;;;;;;1999.90;999.90;;;14.40;99.90;;;;;;5053052;28;20526;-46
2021/07/09 10:43:16;;;;;;;1999.90;999.90;;;14.50;99.90;;;;;;5052949;28;20168;-43
2021/07/09 10:45:43;;;;;;;1999.90;999.90;;;14.60;99.90;;;;;;5053322;28;20205;-59
2021/07/09 10:48:11;;;;;;;1999.90;999.90;;;14.50;99.90;;;;;;5052787;28;20169;-43
2021/07/09 10:50:52;;;;;;;1999.90;999.90;;;14.80;99.90;;;;;;5052622;28;20165;-42
2021/07/09 10:53:25;;;;;;;1999.90;999.90;;;14.80;99.90;;;;;;5053267;28;20171;-42
2021/07/09 10:56:13;;;;;;;1999.90;999.90;;;14.70;99.90;;;;;;5052476;28;20248;-41
2021/07/09 10:58:44;;;;;;;1999.90;999.90;;;14.50;99.90;;;;;;5053130;28;20161;-50
2021/07/09 11:01:21;;;;;;;1999.90;999.90;;;14.50;99.90;;;;;;5052620;28;20181;-45
2021/07/09 11:03:57;;;;;;;1999.90;999.90;;;14.50;99.90;;;;;;5052623;28;20157;-41
2021/07/09 11:06:38;;;;;;;1999.90;999.90;;;14.50;99.90;;;;;;5052674;28;20663;-40
2021/07/09 11:09:10;;;;;;;1999.90;999.90;;;14.60;99.90;;;;;;5052094;28;20157;-41
2021/07/09 11:11:52;;;;;;;1999.90;999.90;;;14.50;99.90;;;;;;5034215;28;20220;-40
2021/07/09 11:14:34;;;;;;;1999.90;999.90;;;14.80;99.90;;;;;;5050675;28;20667;-42
2021/07/09 11:17:23;;;;;;;1999.90;999.90;;;15.20;99.90;;;;;;5052283;28;20628;-56
2021/07/09 11:20:11;;;;;;;1999.90;999.90;;;16.00;99.90;;;;;;5051594;28;20158;-52
2021/07/09 11:22:38;;;;;;;1999.90;999.90;;;16.70;99.90;;;;;;5052162;28;20215;-57
2021/07/09 11:25:06;;;;;;;1999.90;999.90;;;17.30;99.90;;;;;;5051923;28;20235;-57
2021/07/09 11:27:33;;;;;;;1999.90;999.90;;;17.50;99.90;;;;;;5052480;28;20170;-53
2021/07/09 11:30:01;;;;;;;1999.90;999.90;;;17.40;97.00;;;;;;5051818;28;20177;-54
2021/07/09 11:32:28;;;;;;;1999.90;999.90;;;17.20;97.80;;;;;;5034233;28;20188;-54
2021/07/09 11:34:56;;;;;;;1999.90;999.90;;;16.80;98.50;;;;;;5052077;28;20181;-53
2021/07/09 11:37:26;;;;;;;1999.90;999.90;;;16.90;99.40;;;;;;5051532;28;20172;-50
2021/07/09 11:40:00;;;;;;;1999.90;999.90;;;17.20;99.50;;;;;;5052091;28;20202;-56
2021/07/09 11:42:28;;;;;;;1999.90;999.90;;;17.40;99.90;;;;;;5051864;28;20240;-56
2021/07/09 11:44:57;;;;;;;1999.90;999.90;;;17.30;97.90;;;;;;5051434;28;20208;-50
2021/07/09 11:47:27;;;;;;;1999.90;999.90;;;17.30;99.90;;;;;;5051655;28;20177;-53
2021/07/09 11:50:00;;;;;;;1999.90;999.90;;;17.40;99.80;;;;;;5051867;28;20203;-50
2021/07/09 11:52:29;;;;;;;1999.90;999.90;;;17.30;97.30;;;;;;5052295;28;20184;-60
2021/07/09 11:55:01;;;;;;;1999.90;999.90;;;16.60;97.40;;;;;;5052865;28;20180;-62
2021/07/09 11:57:33;;;;;;;1999.90;999.90;;;16.10;99.90;;;;;;5051785;28;20181;-54
2021/07/09 12:00:01;;;;;;;1999.90;999.90;;;15.80;99.90;;;;;;5051011;28;20160;-52
2021/07/09 12:02:29;;;;;;;1999.90;999.90;;;15.70;99.90;;;;;;5051582;28;20173;-59
2021/07/09 12:05:01;;;;;;;1999.90;999.90;;;15.50;99.90;;;;;;5052165;28;20192;-52
2021/07/09 12:07:36;;;;;;;1999.90;999.90;;;15.40;99.90;;;;;;5051073;28;20172;-53
2021/07/09 12:10:09;;;;;;;1999.90;999.90;;;15.60;99.90;;;;;;5050026;28;20162;-57
2021/07/09 12:12:44;;;;;;;1999.90;999.90;;;15.60;99.90;;;;;;5051173;28;20256;-59